sensor_id;sensor_type;location;lat;lon;timestamp;P1;durP1;ratioP1;P2;durP2;ratioP2
10890;SDS011;5498;50.928;11.598;2023-02-03T00:01:43;644.27;;;387.23;;
10890;SDS011;5498;50.928;11.598;2023-02-03T00:04:46;666.87;;;431.80;;
10890;SDS011;5498;50.928;11.598;2023-02-03T00:07:48;658.50;;;417.00;;
10890;SDS011;5498;50.928;11.598;2023-02-03T00:10:50;647.53;;;388.70;;
10890;SDS011;5498;50.928;11.598;2023-02-03T00:13:52;658.47;;;423.27;;
10890;SDS011;5498;50.928;11.598;2023-02-03T00:16:54;661.13;;;428.03;;
10890;SDS011;5498;50.928;11.598;2023-02-03T00:19:58;675.43;;;448.90;;
10890;SDS011;5498;50.928;11.598;2023-02-03T00:23:03;684.17;;;463.27;;
10890;SDS011;5498;50.928;11.598;2023-02-03T00:26:06;695.13;;;471.87;;
10890;SDS011;5498;50.928;11.598;2023-02-03T00:29:09;679.63;;;442.53;;
10890;SDS011;5498;50.928;11.598;2023-02-03T00:32:11;650.47;;;399.77;;
10890;SDS011;5498;50.928;11.598;2023-02-03T00:35:14;683.07;;;470.97;;
10890;SDS011;5498;50.928;11.598;2023-02-03T00:38:16;729.37;;;534.60;;
10890;SDS011;5498;50.928;11.598;2023-02-03T00:41:18;706.73;;;496.07;;
10890;SDS011;5498;50.928;11.598;2023-02-03T00:44:21;614.77;;;259.97;;
10890;SDS011;5498;50.928;11.598;2023-02-03T00:47:23;646.23;;;338.03;;
10890;SDS011;5498;50.928;11.598;2023-02-03T00:50:26;709.10;;;486.43;;
10890;SDS011;5498;50.928;11.598;2023-02-03T00:53:28;662.67;;;438.77;;
10890;SDS011;5498;50.928;11.598;2023-02-03T00:56:30;645.57;;;386.47;;
10890;SDS011;5498;50.928;11.598;2023-02-03T00:59:31;647.73;;;396.23;;
10890;SDS011;5498;50.928;11.598;2023-02-03T01:02:33;643.37;;;380.47;;
10890;SDS011;5498;50.928;11.598;2023-02-03T01:05:37;635.97;;;353.70;;
10890;SDS011;5498;50.928;11.598;2023-02-03T01:08:39;640.43;;;368.93;;
10890;SDS011;5498;50.928;11.598;2023-02-03T01:11:41;636.07;;;365.00;;
10890;SDS011;5498;50.928;11.598;2023-02-03T01:14:43;635.83;;;358.70;;
10890;SDS011;5498;50.928;11.598;2023-02-03T01:17:44;635.00;;;364.47;;
10890;SDS011;5498;50.928;11.598;2023-02-03T01:20:47;627.53;;;340.30;;
10890;SDS011;5498;50.928;11.598;2023-02-03T01:23:49;631.53;;;344.33;;
10890;SDS011;5498;50.928;11.598;2023-02-03T01:26:52;630.93;;;344.90;;
10890;SDS011;5498;50.928;11.598;2023-02-03T01:29:54;627.27;;;337.67;;
10890;SDS011;5498;50.928;11.598;2023-02-03T01:32:56;631.60;;;349.50;;
10890;SDS011;5498;50.928;11.598;2023-02-03T01:36:00;634.40;;;353.90;;
10890;SDS011;5498;50.928;11.598;2023-02-03T01:39:04;623.90;;;325.70;;
10890;SDS011;5498;50.928;11.598;2023-02-03T01:42:07;632.37;;;350.40;;
10890;SDS011;5498;50.928;11.598;2023-02-03T01:45:11;630.67;;;340.37;;
10890;SDS011;5498;50.928;11.598;2023-02-03T01:48:13;628.40;;;335.53;;
10890;SDS011;5498;50.928;11.598;2023-02-03T01:51:16;635.83;;;353.23;;
10890;SDS011;5498;50.928;11.598;2023-02-03T01:54:20;624.93;;;330.87;;
10890;SDS011;5498;50.928;11.598;2023-02-03T01:57:28;622.10;;;328.67;;
10890;SDS011;5498;50.928;11.598;2023-02-03T02:00:34;617.23;;;314.43;;
10890;SDS011;5498;50.928;11.598;2023-02-03T02:03:37;611.03;;;285.43;;
10890;SDS011;5498;50.928;11.598;2023-02-03T02:06:43;613.40;;;292.73;;
10890;SDS011;5498;50.928;11.598;2023-02-03T02:09:47;610.27;;;289.87;;
10890;SDS011;5498;50.928;11.598;2023-02-03T02:12:49;611.33;;;285.90;;
10890;SDS011;5498;50.928;11.598;2023-02-03T02:15:53;608.23;;;280.60;;
10890;SDS011;5498;50.928;11.598;2023-02-03T02:19:10;607.03;;;275.00;;
10890;SDS011;5498;50.928;11.598;2023-02-03T02:22:59;608.40;;;274.80;;
10890;SDS011;5498;50.928;11.598;2023-02-03T02:26:56;620.40;;;312.80;;
10890;SDS011;5498;50.928;11.598;2023-02-03T02:33:42;618.53;;;313.23;;
10890;SDS011;5498;50.928;11.598;2023-02-03T02:36:50;626.47;;;332.63;;
10890;SDS011;5498;50.928;11.598;2023-02-03T02:40:05;630.30;;;344.07;;
10890;SDS011;5498;50.928;11.598;2023-02-03T02:43:17;617.23;;;308.13;;
10890;SDS011;5498;50.928;11.598;2023-02-03T02:46:26;617.93;;;306.33;;
10890;SDS011;5498;50.928;11.598;2023-02-03T02:49:36;621.90;;;320.73;;
10890;SDS011;5498;50.928;11.598;2023-02-03T02:52:43;629.03;;;340.10;;
10890;SDS011;5498;50.928;11.598;2023-02-03T02:55:47;618.07;;;313.97;;
10890;SDS011;5498;50.928;11.598;2023-02-03T02:58:49;604.13;;;266.70;;
10890;SDS011;5498;50.928;11.598;2023-02-03T03:01:52;615.00;;;298.53;;
10890;SDS011;5498;50.928;11.598;2023-02-03T03:04:55;617.93;;;301.47;;
10890;SDS011;5498;50.928;11.598;2023-02-03T03:07:57;630.03;;;357.53;;
10890;SDS011;5498;50.928;11.598;2023-02-03T03:11:02;637.17;;;373.13;;
10890;SDS011;5498;50.928;11.598;2023-02-03T03:14:05;633.33;;;360.00;;
10890;SDS011;5498;50.928;11.598;2023-02-03T03:17:09;626.80;;;336.20;;
10890;SDS011;5498;50.928;11.598;2023-02-03T03:20:18;621.13;;;325.73;;
10890;SDS011;5498;50.928;11.598;2023-02-03T03:23:25;630.23;;;350.47;;
10890;SDS011;5498;50.928;11.598;2023-02-03T03:26:31;631.13;;;350.07;;
10890;SDS011;5498;50.928;11.598;2023-02-03T03:29:40;618.37;;;313.87;;
10890;SDS011;5498;50.928;11.598;2023-02-03T03:32:46;626.77;;;336.77;;
10890;SDS011;5498;50.928;11.598;2023-02-03T03:35:52;620.67;;;322.90;;
10890;SDS011;5498;50.928;11.598;2023-02-03T03:39:02;625.43;;;329.27;;
10890;SDS011;5498;50.928;11.598;2023-02-03T03:42:13;625.27;;;331.43;;
10890;SDS011;5498;50.928;11.598;2023-02-03T03:45:23;623.23;;;330.87;;
10890;SDS011;5498;50.928;11.598;2023-02-03T03:48:29;620.23;;;321.13;;
10890;SDS011;5498;50.928;11.598;2023-02-03T03:51:38;622.30;;;329.17;;
10890;SDS011;5498;50.928;11.598;2023-02-03T03:54:44;619.00;;;319.27;;
10890;SDS011;5498;50.928;11.598;2023-02-03T03:57:51;620.63;;;316.73;;
10890;SDS011;5498;50.928;11.598;2023-02-03T04:00:59;636.20;;;369.67;;
10890;SDS011;5498;50.928;11.598;2023-02-03T04:04:04;679.97;;;496.93;;
10890;SDS011;5498;50.928;11.598;2023-02-03T04:07:12;682.10;;;495.30;;
10890;SDS011;5498;50.928;11.598;2023-02-03T04:10:17;657.27;;;427.77;;
10890;SDS011;5498;50.928;11.598;2023-02-03T04:13:25;642.37;;;387.47;;
10890;SDS011;5498;50.928;11.598;2023-02-03T04:16:28;635.27;;;364.80;;
10890;SDS011;5498;50.928;11.598;2023-02-03T04:19:30;651.40;;;411.30;;
10890;SDS011;5498;50.928;11.598;2023-02-03T04:22:34;639.17;;;374.40;;
10890;SDS011;5498;50.928;11.598;2023-02-03T04:25:36;654.70;;;426.47;;
10890;SDS011;5498;50.928;11.598;2023-02-03T04:28:38;655.27;;;439.20;;
10890;SDS011;5498;50.928;11.598;2023-02-03T04:31:40;648.00;;;415.03;;
10890;SDS011;5498;50.928;11.598;2023-02-03T04:34:42;657.50;;;440.03;;
10890;SDS011;5498;50.928;11.598;2023-02-03T04:37:45;644.73;;;394.53;;
10890;SDS011;5498;50.928;11.598;2023-02-03T04:40:47;632.33;;;364.20;;
10890;SDS011;5498;50.928;11.598;2023-02-03T04:43:49;638.50;;;382.90;;
10890;SDS011;5498;50.928;11.598;2023-02-03T04:46:50;631.13;;;358.77;;
10890;SDS011;5498;50.928;11.598;2023-02-03T04:49:52;644.60;;;397.13;;
10890;SDS011;5498;50.928;11.598;2023-02-03T04:52:55;645.93;;;415.37;;
10890;SDS011;5498;50.928;11.598;2023-02-03T04:55:59;640.60;;;387.17;;
10890;SDS011;5498;50.928;11.598;2023-02-03T04:59:01;637.53;;;381.27;;
10890;SDS011;5498;50.928;11.598;2023-02-03T05:02:03;651.23;;;429.73;;
10890;SDS011;5498;50.928;11.598;2023-02-03T05:05:05;668.67;;;463.97;;
10890;SDS011;5498;50.928;11.598;2023-02-03T05:08:09;656.97;;;447.20;;
10890;SDS011;5498;50.928;11.598;2023-02-03T05:11:11;661.80;;;456.30;;
10890;SDS011;5498;50.928;11.598;2023-02-03T05:14:13;667.87;;;468.97;;
10890;SDS011;5498;50.928;11.598;2023-02-03T05:17:15;655.60;;;439.83;;
10890;SDS011;5498;50.928;11.598;2023-02-03T05:20:16;681.03;;;508.20;;
10890;SDS011;5498;50.928;11.598;2023-02-03T05:23:20;662.47;;;464.07;;
10890;SDS011;5498;50.928;11.598;2023-02-03T05:26:24;667.17;;;472.27;;
10890;SDS011;5498;50.928;11.598;2023-02-03T05:29:26;656.87;;;437.03;;
10890;SDS011;5498;50.928;11.598;2023-02-03T05:32:28;651.57;;;428.83;;
10890;SDS011;5498;50.928;11.598;2023-02-03T05:35:30;663.73;;;465.00;;
10890;SDS011;5498;50.928;11.598;2023-02-03T05:38:33;686.07;;;520.63;;
10890;SDS011;5498;50.928;11.598;2023-02-03T05:41:35;691.97;;;528.97;;
10890;SDS011;5498;50.928;11.598;2023-02-03T05:44:51;702.10;;;547.50;;
10890;SDS011;5498;50.928;11.598;2023-02-03T05:47:53;695.20;;;538.10;;
10890;SDS011;5498;50.928;11.598;2023-02-03T05:50:55;685.30;;;510.10;;
10890;SDS011;5498;50.928;11.598;2023-02-03T05:53:58;673.03;;;486.93;;
10890;SDS011;5498;50.928;11.598;2023-02-03T05:57:00;680.27;;;507.00;;
10890;SDS011;5498;50.928;11.598;2023-02-03T06:00:02;704.90;;;565.53;;
10890;SDS011;5498;50.928;11.598;2023-02-03T06:03:06;705.97;;;549.67;;
10890;SDS011;5498;50.928;11.598;2023-02-03T06:06:08;709.43;;;555.13;;
10890;SDS011;5498;50.928;11.598;2023-02-03T06:09:11;691.23;;;522.30;;
10890;SDS011;5498;50.928;11.598;2023-02-03T06:12:13;687.23;;;523.63;;
10890;SDS011;5498;50.928;11.598;2023-02-03T06:15:16;704.07;;;554.53;;
10890;SDS011;5498;50.928;11.598;2023-02-03T06:18:18;703.53;;;547.40;;
10890;SDS011;5498;50.928;11.598;2023-02-03T06:21:20;686.70;;;516.63;;
10890;SDS011;5498;50.928;11.598;2023-02-03T06:24:23;689.90;;;524.67;;
10890;SDS011;5498;50.928;11.598;2023-02-03T06:27:25;693.17;;;537.87;;
10890;SDS011;5498;50.928;11.598;2023-02-03T06:30:27;690.03;;;528.10;;
10890;SDS011;5498;50.928;11.598;2023-02-03T06:33:29;684.13;;;511.50;;
10890;SDS011;5498;50.928;11.598;2023-02-03T06:36:32;684.60;;;513.20;;
10890;SDS011;5498;50.928;11.598;2023-02-03T06:39:35;670.07;;;487.67;;
10890;SDS011;5498;50.928;11.598;2023-02-03T06:42:39;661.87;;;471.37;;
10890;SDS011;5498;50.928;11.598;2023-02-03T06:45:45;665.07;;;471.83;;
10890;SDS011;5498;50.928;11.598;2023-02-03T06:48:47;674.97;;;496.83;;
10890;SDS011;5498;50.928;11.598;2023-02-03T06:51:49;696.07;;;542.47;;
10890;SDS011;5498;50.928;11.598;2023-02-03T06:54:52;693.70;;;533.50;;
10890;SDS011;5498;50.928;11.598;2023-02-03T06:57:54;697.40;;;546.20;;
10890;SDS011;5498;50.928;11.598;2023-02-03T07:00:56;703.10;;;546.90;;
10890;SDS011;5498;50.928;11.598;2023-02-03T07:03:58;712.53;;;559.23;;
10890;SDS011;5498;50.928;11.598;2023-02-03T07:07:00;694.20;;;537.10;;
10890;SDS011;5498;50.928;11.598;2023-02-03T07:10:03;686.33;;;516.13;;
10890;SDS011;5498;50.928;11.598;2023-02-03T07:13:07;686.37;;;519.57;;
10890;SDS011;5498;50.928;11.598;2023-02-03T07:16:12;735.27;;;591.27;;
10890;SDS011;5498;50.928;11.598;2023-02-03T07:19:14;721.40;;;572.67;;
10890;SDS011;5498;50.928;11.598;2023-02-03T07:22:15;739.47;;;591.17;;
10890;SDS011;5498;50.928;11.598;2023-02-03T07:25:19;715.60;;;570.83;;
10890;SDS011;5498;50.928;11.598;2023-02-03T07:28:21;698.27;;;540.97;;
10890;SDS011;5498;50.928;11.598;2023-02-03T07:31:23;686.27;;;515.50;;
10890;SDS011;5498;50.928;11.598;2023-02-03T07:34:24;683.83;;;511.67;;
10890;SDS011;5498;50.928;11.598;2023-02-03T07:37:26;683.43;;;519.70;;
10890;SDS011;5498;50.928;11.598;2023-02-03T07:40:29;697.03;;;535.20;;
10890;SDS011;5498;50.928;11.598;2023-02-03T07:43:31;676.90;;;490.53;;
10890;SDS011;5498;50.928;11.598;2023-02-03T07:46:33;681.77;;;512.30;;
10890;SDS011;5498;50.928;11.598;2023-02-03T07:49:39;672.90;;;494.47;;
10890;SDS011;5498;50.928;11.598;2023-02-03T07:52:42;670.93;;;487.23;;
10890;SDS011;5498;50.928;11.598;2023-02-03T07:55:45;666.33;;;481.43;;
10890;SDS011;5498;50.928;11.598;2023-02-03T07:58:47;664.70;;;470.37;;
10890;SDS011;5498;50.928;11.598;2023-02-03T08:01:57;665.30;;;472.40;;
10890;SDS011;5498;50.928;11.598;2023-02-03T08:05:08;681.63;;;513.00;;
10890;SDS011;5498;50.928;11.598;2023-02-03T08:08:11;678.60;;;506.10;;
10890;SDS011;5498;50.928;11.598;2023-02-03T08:11:15;682.87;;;523.97;;
10890;SDS011;5498;50.928;11.598;2023-02-03T08:14:17;681.80;;;518.97;;
10890;SDS011;5498;50.928;11.598;2023-02-03T08:17:19;672.53;;;486.47;;
10890;SDS011;5498;50.928;11.598;2023-02-03T08:20:20;663.13;;;473.00;;
10890;SDS011;5498;50.928;11.598;2023-02-03T08:23:22;665.97;;;469.57;;
10890;SDS011;5498;50.928;11.598;2023-02-03T08:26:25;663.33;;;471.13;;
10890;SDS011;5498;50.928;11.598;2023-02-03T08:29:28;663.03;;;474.77;;
10890;SDS011;5498;50.928;11.598;2023-02-03T08:32:31;668.10;;;470.90;;
10890;SDS011;5498;50.928;11.598;2023-02-03T08:35:33;666.13;;;470.17;;
10890;SDS011;5498;50.928;11.598;2023-02-03T08:38:35;667.13;;;482.70;;
10890;SDS011;5498;50.928;11.598;2023-02-03T08:41:39;667.40;;;482.20;;
10890;SDS011;5498;50.928;11.598;2023-02-03T08:44:41;689.87;;;532.33;;
10890;SDS011;5498;50.928;11.598;2023-02-03T08:47:43;692.60;;;543.00;;
10890;SDS011;5498;50.928;11.598;2023-02-03T08:50:45;687.30;;;523.37;;
10890;SDS011;5498;50.928;11.598;2023-02-03T08:53:51;695.33;;;552.13;;
10890;SDS011;5498;50.928;11.598;2023-02-03T08:56:54;689.37;;;538.10;;
10890;SDS011;5498;50.928;11.598;2023-02-03T08:59:56;688.90;;;538.10;;
10890;SDS011;5498;50.928;11.598;2023-02-03T09:02:58;673.67;;;493.13;;
10890;SDS011;5498;50.928;11.598;2023-02-03T09:06:03;675.53;;;501.13;;
10890;SDS011;5498;50.928;11.598;2023-02-03T09:09:06;674.47;;;502.27;;
10890;SDS011;5498;50.928;11.598;2023-02-03T09:12:10;672.07;;;489.70;;
10890;SDS011;5498;50.928;11.598;2023-02-03T09:15:12;669.40;;;490.43;;
10890;SDS011;5498;50.928;11.598;2023-02-03T09:18:14;680.53;;;503.53;;
10890;SDS011;5498;50.928;11.598;2023-02-03T09:21:16;674.67;;;505.63;;
10890;SDS011;5498;50.928;11.598;2023-02-03T09:24:18;664.33;;;470.77;;
10890;SDS011;5498;50.928;11.598;2023-02-03T09:27:22;672.30;;;494.57;;
10890;SDS011;5498;50.928;11.598;2023-02-03T09:30:24;669.80;;;484.87;;
10890;SDS011;5498;50.928;11.598;2023-02-03T09:33:26;667.83;;;487.47;;
10890;SDS011;5498;50.928;11.598;2023-02-03T09:36:28;667.63;;;480.20;;
10890;SDS011;5498;50.928;11.598;2023-02-03T09:39:30;663.57;;;480.40;;
10890;SDS011;5498;50.928;11.598;2023-02-03T09:42:37;669.30;;;486.00;;
10890;SDS011;5498;50.928;11.598;2023-02-03T09:46:02;665.13;;;472.03;;
10890;SDS011;5498;50.928;11.598;2023-02-03T09:49:10;662.63;;;470.67;;
10890;SDS011;5498;50.928;11.598;2023-02-03T09:52:18;670.43;;;501.27;;
10890;SDS011;5498;50.928;11.598;2023-02-03T09:55:26;676.63;;;507.17;;
10890;SDS011;5498;50.928;11.598;2023-02-03T09:58:35;676.93;;;500.17;;
10890;SDS011;5498;50.928;11.598;2023-02-03T10:01:41;671.87;;;490.63;;
10890;SDS011;5498;50.928;11.598;2023-02-03T10:04:53;658.30;;;453.27;;
10890;SDS011;5498;50.928;11.598;2023-02-03T10:08:02;662.00;;;472.07;;
10890;SDS011;5498;50.928;11.598;2023-02-03T10:11:15;656.20;;;457.37;;
10890;SDS011;5498;50.928;11.598;2023-02-03T10:14:45;651.23;;;441.60;;
10890;SDS011;5498;50.928;11.598;2023-02-03T10:18:00;654.00;;;447.03;;
10890;SDS011;5498;50.928;11.598;2023-02-03T10:21:11;650.80;;;437.77;;
10890;SDS011;5498;50.928;11.598;2023-02-03T10:24:18;639.47;;;406.27;;
10890;SDS011;5498;50.928;11.598;2023-02-03T10:27:27;641.80;;;407.83;;
10890;SDS011;5498;50.928;11.598;2023-02-03T10:30:35;651.10;;;448.47;;
10890;SDS011;5498;50.928;11.598;2023-02-03T10:33:46;655.97;;;453.67;;
10890;SDS011;5498;50.928;11.598;2023-02-03T10:36:52;647.37;;;435.53;;
10890;SDS011;5498;50.928;11.598;2023-02-03T10:39:56;655.23;;;456.37;;
10890;SDS011;5498;50.928;11.598;2023-02-03T10:43:00;645.27;;;433.47;;
10890;SDS011;5498;50.928;11.598;2023-02-03T10:46:22;643.93;;;427.37;;
10890;SDS011;5498;50.928;11.598;2023-02-03T10:49:28;638.67;;;408.10;;
10890;SDS011;5498;50.928;11.598;2023-02-03T10:52:31;640.43;;;410.07;;
10890;SDS011;5498;50.928;11.598;2023-02-03T10:55:35;633.83;;;390.80;;
10890;SDS011;5498;50.928;11.598;2023-02-03T10:58:37;629.20;;;376.00;;
10890;SDS011;5498;50.928;11.598;2023-02-03T11:01:48;640.03;;;407.37;;
10890;SDS011;5498;50.928;11.598;2023-02-03T11:08:17;639.97;;;411.80;;
10890;SDS011;5498;50.928;11.598;2023-02-03T11:11:31;637.37;;;405.47;;
10890;SDS011;5498;50.928;11.598;2023-02-03T11:14:35;636.37;;;406.43;;
10890;SDS011;5498;50.928;11.598;2023-02-03T11:17:42;637.10;;;399.20;;
10890;SDS011;5498;50.928;11.598;2023-02-03T11:20:44;636.83;;;405.10;;
10890;SDS011;5498;50.928;11.598;2023-02-03T11:23:51;643.53;;;424.20;;
10890;SDS011;5498;50.928;11.598;2023-02-03T11:27:02;640.87;;;418.17;;
10890;SDS011;5498;50.928;11.598;2023-02-03T11:30:08;642.50;;;414.77;;
10890;SDS011;5498;50.928;11.598;2023-02-03T11:33:17;646.57;;;430.77;;
10890;SDS011;5498;50.928;11.598;2023-02-03T11:36:30;634.70;;;396.40;;
10890;SDS011;5498;50.928;11.598;2023-02-03T11:39:34;644.53;;;426.97;;
10890;SDS011;5498;50.928;11.598;2023-02-03T11:42:37;651.40;;;445.03;;
10890;SDS011;5498;50.928;11.598;2023-02-03T11:45:41;643.50;;;419.40;;
10890;SDS011;5498;50.928;11.598;2023-02-03T11:48:49;640.97;;;418.47;;
10890;SDS011;5498;50.928;11.598;2023-02-03T11:52:05;646.90;;;432.23;;
10890;SDS011;5498;50.928;11.598;2023-02-03T11:55:25;642.87;;;428.57;;
10890;SDS011;5498;50.928;11.598;2023-02-03T11:58:39;652.27;;;450.77;;
10890;SDS011;5498;50.928;11.598;2023-02-03T12:02:04;647.87;;;433.73;;
10890;SDS011;5498;50.928;11.598;2023-02-03T12:06:03;648.13;;;438.97;;
10890;SDS011;5498;50.928;11.598;2023-02-03T12:09:32;656.97;;;466.20;;
10890;SDS011;5498;50.928;11.598;2023-02-03T12:12:50;656.50;;;469.83;;
10890;SDS011;5498;50.928;11.598;2023-02-03T12:16:05;658.80;;;463.17;;
10890;SDS011;5498;50.928;11.598;2023-02-03T12:19:24;661.70;;;460.90;;
10890;SDS011;5498;50.928;11.598;2023-02-03T12:22:41;653.77;;;457.87;;
10890;SDS011;5498;50.928;11.598;2023-02-03T12:25:58;640.70;;;411.43;;
10890;SDS011;5498;50.928;11.598;2023-02-03T12:29:11;645.70;;;430.30;;
10890;SDS011;5498;50.928;11.598;2023-02-03T12:32:18;654.40;;;456.90;;
10890;SDS011;5498;50.928;11.598;2023-02-03T12:35:29;643.60;;;424.57;;
10890;SDS011;5498;50.928;11.598;2023-02-03T12:38:39;656.23;;;466.03;;
10890;SDS011;5498;50.928;11.598;2023-02-03T12:41:47;657.30;;;467.30;;
10890;SDS011;5498;50.928;11.598;2023-02-03T12:44:56;659.23;;;468.73;;
10890;SDS011;5498;50.928;11.598;2023-02-03T12:48:03;657.23;;;461.20;;
10890;SDS011;5498;50.928;11.598;2023-02-03T12:51:11;644.30;;;423.93;;
10890;SDS011;5498;50.928;11.598;2023-02-03T12:54:24;640.53;;;418.17;;
10890;SDS011;5498;50.928;11.598;2023-02-03T12:57:37;640.97;;;416.10;;
10890;SDS011;5498;50.928;11.598;2023-02-03T13:00:45;647.57;;;429.70;;
10890;SDS011;5498;50.928;11.598;2023-02-03T13:03:54;645.70;;;440.57;;
10890;SDS011;5498;50.928;11.598;2023-02-03T13:07:06;644.40;;;424.43;;
10890;SDS011;5498;50.928;11.598;2023-02-03T13:10:18;652.63;;;445.67;;
10890;SDS011;5498;50.928;11.598;2023-02-03T13:13:28;647.90;;;443.27;;
10890;SDS011;5498;50.928;11.598;2023-02-03T13:16:38;634.07;;;395.43;;
10890;SDS011;5498;50.928;11.598;2023-02-03T13:19:45;636.27;;;402.03;;
10890;SDS011;5498;50.928;11.598;2023-02-03T13:22:50;642.30;;;419.63;;
10890;SDS011;5498;50.928;11.598;2023-02-03T13:25:57;650.00;;;439.50;;
10890;SDS011;5498;50.928;11.598;2023-02-03T13:37:03;656.37;;;460.70;;
10890;SDS011;5498;50.928;11.598;2023-02-03T13:40:21;648.17;;;436.53;;
10890;SDS011;5498;50.928;11.598;2023-02-03T13:43:37;642.70;;;417.30;;
10890;SDS011;5498;50.928;11.598;2023-02-03T13:46:45;645.50;;;431.73;;
10890;SDS011;5498;50.928;11.598;2023-02-03T13:49:51;642.40;;;414.70;;
10890;SDS011;5498;50.928;11.598;2023-02-03T13:52:59;652.87;;;450.47;;
10890;SDS011;5498;50.928;11.598;2023-02-03T13:56:06;647.57;;;430.03;;
10890;SDS011;5498;50.928;11.598;2023-02-03T13:59:38;643.13;;;424.43;;
10890;SDS011;5498;50.928;11.598;2023-02-03T14:02:44;656.93;;;467.50;;
10890;SDS011;5498;50.928;11.598;2023-02-03T14:05:53;648.87;;;444.77;;
10890;SDS011;5498;50.928;11.598;2023-02-03T14:08:59;650.90;;;450.33;;
10890;SDS011;5498;50.928;11.598;2023-02-03T14:12:11;647.47;;;446.30;;
10890;SDS011;5498;50.928;11.598;2023-02-03T14:16:13;658.63;;;479.10;;
10890;SDS011;5498;50.928;11.598;2023-02-03T14:22:55;654.63;;;452.40;;
10890;SDS011;5498;50.928;11.598;2023-02-03T14:26:12;656.33;;;458.50;;
10890;SDS011;5498;50.928;11.598;2023-02-03T14:29:23;665.80;;;483.97;;
10890;SDS011;5498;50.928;11.598;2023-02-03T14:32:40;656.07;;;456.60;;
10890;SDS011;5498;50.928;11.598;2023-02-03T14:35:49;635.00;;;392.37;;
10890;SDS011;5498;50.928;11.598;2023-02-03T14:38:51;632.57;;;385.73;;
10890;SDS011;5498;50.928;11.598;2023-02-03T14:41:55;634.67;;;396.40;;
10890;SDS011;5498;50.928;11.598;2023-02-03T14:45:07;637.87;;;403.10;;
10890;SDS011;5498;50.928;11.598;2023-02-03T14:48:38;642.50;;;413.10;;
10890;SDS011;5498;50.928;11.598;2023-02-03T14:51:56;671.27;;;486.53;;
10890;SDS011;5498;50.928;11.598;2023-02-03T14:55:25;640.27;;;390.90;;
10890;SDS011;5498;50.928;11.598;2023-02-03T14:58:40;730.57;;;528.03;;
10890;SDS011;5498;50.928;11.598;2023-02-03T15:05:34;790.93;;;640.17;;
10890;SDS011;5498;50.928;11.598;2023-02-03T15:08:40;786.83;;;628.13;;
10890;SDS011;5498;50.928;11.598;2023-02-03T15:11:44;768.73;;;635.87;;
10890;SDS011;5498;50.928;11.598;2023-02-03T15:14:47;752.33;;;629.97;;
10890;SDS011;5498;50.928;11.598;2023-02-03T15:17:49;736.07;;;618.23;;
10890;SDS011;5498;50.928;11.598;2023-02-03T15:20:54;732.17;;;610.60;;
10890;SDS011;5498;50.928;11.598;2023-02-03T15:23:56;716.07;;;595.13;;
10890;SDS011;5498;50.928;11.598;2023-02-03T15:27:02;715.93;;;603.43;;
10890;SDS011;5498;50.928;11.598;2023-02-03T15:30:14;721.97;;;600.90;;
10890;SDS011;5498;50.928;11.598;2023-02-03T15:33:28;712.53;;;566.13;;
10890;SDS011;5498;50.928;11.598;2023-02-03T15:36:39;713.67;;;596.87;;
10890;SDS011;5498;50.928;11.598;2023-02-03T15:39:46;721.90;;;602.17;;
10890;SDS011;5498;50.928;11.598;2023-02-03T15:42:56;707.87;;;581.83;;
10890;SDS011;5498;50.928;11.598;2023-02-03T15:46:03;715.03;;;576.97;;
10890;SDS011;5498;50.928;11.598;2023-02-03T15:49:13;693.80;;;553.33;;
10890;SDS011;5498;50.928;11.598;2023-02-03T15:52:21;700.00;;;548.23;;
10890;SDS011;5498;50.928;11.598;2023-02-03T15:55:28;684.73;;;529.87;;
10890;SDS011;5498;50.928;11.598;2023-02-03T15:58:38;698.10;;;551.00;;
10890;SDS011;5498;50.928;11.598;2023-02-03T16:01:46;687.23;;;520.13;;
10890;SDS011;5498;50.928;11.598;2023-02-03T16:04:48;680.97;;;514.60;;
10890;SDS011;5498;50.928;11.598;2023-02-03T16:07:52;712.83;;;578.13;;
10890;SDS011;5498;50.928;11.598;2023-02-03T16:10:54;698.03;;;537.97;;
10890;SDS011;5498;50.928;11.598;2023-02-03T16:13:56;704.30;;;560.20;;
10890;SDS011;5498;50.928;11.598;2023-02-03T16:16:59;691.00;;;509.37;;
10890;SDS011;5498;50.928;11.598;2023-02-03T16:20:18;679.20;;;502.53;;
10890;SDS011;5498;50.928;11.598;2023-02-03T16:23:26;699.70;;;548.10;;
10890;SDS011;5498;50.928;11.598;2023-02-03T16:26:29;681.00;;;518.07;;
10890;SDS011;5498;50.928;11.598;2023-02-03T16:29:34;694.87;;;537.07;;
10890;SDS011;5498;50.928;11.598;2023-02-03T16:32:57;695.73;;;532.47;;
10890;SDS011;5498;50.928;11.598;2023-02-03T16:36:24;674.27;;;503.33;;
10890;SDS011;5498;50.928;11.598;2023-02-03T16:39:45;678.93;;;517.03;;
10890;SDS011;5498;50.928;11.598;2023-02-03T16:43:04;691.87;;;529.73;;
10890;SDS011;5498;50.928;11.598;2023-02-03T16:46:30;675.33;;;498.33;;
10890;SDS011;5498;50.928;11.598;2023-02-03T16:49:50;666.40;;;473.37;;
10890;SDS011;5498;50.928;11.598;2023-02-03T16:53:10;680.73;;;520.40;;
10890;SDS011;5498;50.928;11.598;2023-02-03T16:56:17;698.53;;;549.63;;
10890;SDS011;5498;50.928;11.598;2023-02-03T16:59:19;695.10;;;545.60;;
10890;SDS011;5498;50.928;11.598;2023-02-03T17:02:20;696.70;;;550.10;;
10890;SDS011;5498;50.928;11.598;2023-02-03T17:05:22;708.00;;;567.43;;
10890;SDS011;5498;50.928;11.598;2023-02-03T17:08:24;701.67;;;559.47;;
10890;SDS011;5498;50.928;11.598;2023-02-03T17:11:28;700.47;;;553.60;;
10890;SDS011;5498;50.928;11.598;2023-02-03T17:14:31;694.37;;;543.90;;
10890;SDS011;5498;50.928;11.598;2023-02-03T17:17:34;684.93;;;520.87;;
10890;SDS011;5498;50.928;11.598;2023-02-03T17:20:35;687.17;;;534.40;;
10890;SDS011;5498;50.928;11.598;2023-02-03T17:23:37;680.27;;;509.40;;
10890;SDS011;5498;50.928;11.598;2023-02-03T17:26:41;681.17;;;509.70;;
10890;SDS011;5498;50.928;11.598;2023-02-03T17:29:43;687.93;;;531.93;;
10890;SDS011;5498;50.928;11.598;2023-02-03T17:32:45;688.13;;;530.27;;
10890;SDS011;5498;50.928;11.598;2023-02-03T17:35:47;688.17;;;521.20;;
10890;SDS011;5498;50.928;11.598;2023-02-03T17:39:01;677.50;;;496.60;;
10890;SDS011;5498;50.928;11.598;2023-02-03T17:42:04;698.50;;;531.83;;
10890;SDS011;5498;50.928;11.598;2023-02-03T17:45:06;703.87;;;558.50;;
10890;SDS011;5498;50.928;11.598;2023-02-03T17:48:09;702.97;;;549.87;;
10890;SDS011;5498;50.928;11.598;2023-02-03T17:51:12;703.33;;;557.37;;
10890;SDS011;5498;50.928;11.598;2023-02-03T17:54:16;700.40;;;551.87;;
10890;SDS011;5498;50.928;11.598;2023-02-03T17:57:20;700.00;;;550.40;;
10890;SDS011;5498;50.928;11.598;2023-02-03T18:00:21;704.83;;;559.40;;
10890;SDS011;5498;50.928;11.598;2023-02-03T18:03:25;703.70;;;546.27;;